WAAA/UPG METAR and TAF weather

Enter ICAO airport designator
Station Type Date Time Source
WAAA METAR 2022/08/16 18:30 UTC NOAA

WAAA 161830Z AUTO 09002KT 8000 FEW019 24/20 Q1010 NOSIG


Station Type Date Time Source
WAAA Decoded METAR 2022/08/16 18:30 UTC NOAA

Ujung Pandang / Hasanuddin, Indonesia (WAAA) 05-04S 119-33E 14M
Aug 16, 2022 - 02:30 PM EDT / 2022.08.16 1830 UTC
Wind: from the E (090 degrees) at 2 MPH (2 KT):0
Visibility: 4 mile(s):0
Sky conditions: mostly clear
Temperature: 75 F (24 C)
Dew Point: 68 F (20 C)
Relative Humidity: 78%
Pressure (altimeter): 29.83 in. Hg (1010 hPa)
ob: WAAA 161830Z AUTO 09002KT 8000 FEW019 24/20 Q1010 NOSIG
cycle: 18

Station Type Date Time Source
WAAA TAF 2022/08/16 18:51 UTC NOAA

TAF TAF WAAA 161700Z 1618/1724 09003KT 8000 FEW019
BECMG 1702/1704 30010KT

Example: see airport list